Time;durP1;ratioP1;P1;durP2;ratioP2;P2;SDS_P1;SDS_P2;PMS_P1;PMS_P2;Temp;Humidity;BMP_temperature;BMP_pressure;BME280_temperature;BME280_humidity;BME280_pressure;Samples;Min_cycle;Max_cycle;Signal;HPM_P1;HPM_P2
2023/06/17 00:02:01;;;;;;;6.55;4.88;;;20.20;48.70;;;;;;5073911;28;20208;-57
2023/06/17 00:04:27;;;;;;;5.40;4.65;;;20.20;48.60;;;;;;5073874;28;20208;-55
2023/06/17 00:06:53;;;;;;;5.22;4.72;;;20.20;48.40;;;;;;5074023;28;20263;-55
2023/06/17 00:09:20;;;;;;;4.80;4.27;;;20.20;48.40;;;;;;5073434;28;20272;-55
2023/06/17 00:11:47;;;;;;;7.35;4.57;;;20.20;48.20;;;;;;5073399;28;20411;-55
2023/06/17 00:14:14;;;;;;;5.70;4.60;;;20.20;48.80;;;;;;5073644;28;20169;-57
2023/06/17 00:16:43;;;;;;;6.35;5.75;;;20.20;48.20;;;;;;5073877;28;20177;-58
2023/06/17 00:19:15;;;;;;;5.82;5.22;;;20.10;48.30;;;;;;5073310;28;20219;-56
2023/06/17 00:21:48;;;;;;;7.05;5.55;;;20.20;48.20;;;;;;5073348;28;20668;-56
2023/06/17 00:24:14;;;;;;;4.57;4.18;;;20.10;48.40;;;;;;5073346;28;20184;-57
2023/06/17 00:26:40;;;;;;;6.27;5.67;;;20.00;48.40;;;;;;5073208;28;20176;-55
2023/06/17 00:29:06;;;;;;;5.00;4.50;;;20.00;48.20;;;;;;5073385;28;20557;-55
2023/06/17 00:31:33;;;;;;;6.80;5.30;;;20.00;48.20;;;;;;5073248;28;20200;-56
2023/06/17 00:33:59;;;;;;;6.03;4.93;;;19.90;48.20;;;;;;5073217;28;20218;-55
2023/06/17 00:36:25;;;;;;;4.82;4.43;;;19.90;48.40;;;;;;5073366;28;20259;-55
2023/06/17 00:38:50;;;;;;;4.40;4.00;;;19.90;48.40;;;;;;5072962;28;20232;-57
2023/06/17 00:41:17;;;;;;;5.43;4.93;;;19.90;48.40;;;;;;5072837;28;20311;-54
2023/06/17 00:43:43;;;;;;;5.63;4.55;;;19.80;48.20;;;;;;5073082;28;20172;-55
2023/06/17 00:46:15;;;;;;;5.40;4.63;;;19.70;48.40;;;;;;5072988;28;20200;-57
2023/06/17 00:48:41;;;;;;;5.25;4.68;;;19.70;48.40;;;;;;5073103;28;20188;-54
2023/06/17 00:51:08;;;;;;;5.67;4.90;;;19.70;48.40;;;;;;5072222;28;20545;-54
2023/06/17 00:53:34;;;;;;;5.82;5.22;;;19.70;48.40;;;;;;5073056;28;20196;-56
2023/06/17 00:56:01;;;;;;;5.70;5.10;;;19.60;48.50;;;;;;5072981;28;20563;-56
2023/06/17 00:58:27;;;;;;;8.40;5.45;;;19.60;48.50;;;;;;5072677;28;20227;-58
2023/06/17 01:00:53;;;;;;;5.28;4.78;;;19.60;48.50;;;;;;5072450;28;20164;-57
2023/06/17 01:03:18;;;;;;;6.30;5.63;;;19.60;48.60;;;;;;5071437;28;20175;-55
2023/06/17 01:05:47;;;;;;;4.90;4.40;;;19.50;48.60;;;;;;5072503;28;20172;-56
2023/06/17 01:08:33;;;;;;;5.70;4.57;;;19.50;48.60;;;;;;5072769;28;20192;-57
2023/06/17 01:11:14;;;;;;;6.93;4.95;;;19.50;48.60;;;;;;5072375;28;20172;-55
2023/06/17 01:13:45;;;;;;;4.97;4.30;;;19.50;49.10;;;;;;5072365;28;20218;-55
2023/06/17 01:16:11;;;;;;;6.07;4.90;;;19.50;48.80;;;;;;5072342;28;20160;-55
2023/06/17 01:18:40;;;;;;;6.65;5.50;;;19.50;48.80;;;;;;5072338;28;20180;-58
2023/06/17 01:21:07;;;;;;;11.70;6.22;;;19.40;48.50;;;;;;5072105;28;20264;-58
2023/06/17 01:23:35;;;;;;;5.45;4.60;;;19.50;48.60;;;;;;5072601;28;20528;-56
2023/06/17 01:26:02;;;;;;;4.97;4.57;;;19.40;48.40;;;;;;5072476;28;20181;-58
2023/06/17 01:28:29;;;;;;;5.50;5.00;;;19.40;48.40;;;;;;5072147;28;20238;-57
2023/06/17 01:30:56;;;;;;;6.03;5.43;;;19.40;48.60;;;;;;5072233;28;20191;-54
2023/06/17 01:33:23;;;;;;;4.65;4.15;;;19.30;48.60;;;;;;5072460;28;20176;-56
2023/06/17 01:35:57;;;;;;;6.22;4.65;;;19.30;48.70;;;;;;5072145;28;20206;-58
2023/06/17 01:38:33;;;;;;;5.95;5.25;;;19.40;48.80;;;;;;5072120;28;20207;-55
2023/06/17 01:41:06;;;;;;;6.40;5.45;;;19.40;49.50;;;;;;5071781;28;20180;-58
2023/06/17 01:43:35;;;;;;;7.35;5.43;;;19.30;48.80;;;;;;5072133;28;20172;-55
2023/06/17 01:46:01;;;;;;;5.53;5.03;;;19.20;48.80;;;;;;5072293;28;20283;-58
2023/06/17 01:48:28;;;;;;;7.13;5.18;;;19.30;49.00;;;;;;5071920;28;20200;-57
2023/06/17 01:50:53;;;;;;;5.45;4.95;;;19.20;49.00;;;;;;5072086;28;20259;-54
2023/06/17 01:53:19;;;;;;;6.37;5.77;;;19.20;49.00;;;;;;5072031;28;20169;-54
2023/06/17 01:55:45;;;;;;;6.53;5.43;;;19.20;49.10;;;;;;5072068;28;20172;-57
2023/06/17 01:58:11;;;;;;;6.50;5.90;;;19.30;49.10;;;;;;5071054;28;20193;-55
2023/06/17 02:00:36;;;;;;;6.43;5.83;;;19.20;49.30;;;;;;5071759;28;20165;-55
2023/06/17 02:03:02;;;;;;;6.03;5.43;;;19.30;49.20;;;;;;5072692;28;20196;-57
2023/06/17 02:05:28;;;;;;;5.97;5.37;;;19.30;49.30;;;;;;5076167;28;20260;-55
2023/06/17 02:07:56;;;;;;;6.10;5.50;;;19.30;49.40;;;;;;5074720;28;20484;-55
2023/06/17 02:10:22;;;;;;;7.07;6.38;;;19.30;49.60;;;;;;5075822;28;20173;-59
2023/06/17 02:12:48;;;;;;;5.68;5.18;;;19.30;49.70;;;;;;5075942;28;20192;-58
2023/06/17 02:15:14;;;;;;;7.40;6.20;;;19.30;49.70;;;;;;5076209;28;20179;-56
2023/06/17 02:17:41;;;;;;;6.73;6.00;;;19.30;49.50;;;;;;5075678;28;20200;-55
2023/06/17 02:20:09;;;;;;;6.43;5.82;;;19.30;49.60;;;;;;5075580;28;20410;-57
2023/06/17 02:22:35;;;;;;;8.10;6.18;;;19.30;49.40;;;;;;5075630;28;20200;-55
2023/06/17 02:25:02;;;;;;;6.15;5.60;;;19.40;49.40;;;;;;5075598;28;20169;-57
2023/06/17 02:27:28;;;;;;;6.50;5.90;;;19.40;49.20;;;;;;5075796;28;20208;-57
2023/06/17 02:29:54;;;;;;;5.50;5.00;;;19.40;49.00;;;;;;5075525;28;20248;-56
2023/06/17 02:32:20;;;;;;;6.53;5.93;;;19.30;49.20;;;;;;5075611;28;20176;-57
2023/06/17 02:34:48;;;;;;;6.18;5.63;;;19.30;49.30;;;;;;5075806;28;20226;-59
2023/06/17 02:37:14;;;;;;;7.18;6.47;;;19.30;49.50;;;;;;5075410;28;20235;-58
2023/06/17 02:39:40;;;;;;;6.68;6.03;;;19.30;49.60;;;;;;5074949;28;20219;-56
2023/06/17 02:42:08;;;;;;;6.55;5.95;;;19.30;49.70;;;;;;5075389;28;20256;-56
2023/06/17 02:44:35;;;;;;;10.93;6.25;;;19.30;50.00;;;;;;5075302;28;20164;-59
2023/06/17 02:47:01;;;;;;;8.23;7.28;;;19.30;49.90;;;;;;5075355;28;20173;-57
2023/06/17 02:49:27;;;;;;;7.20;6.00;;;19.40;49.30;;;;;;5074927;28;20196;-56
2023/06/17 02:51:53;;;;;;;6.20;5.57;;;19.40;49.20;;;;;;5075052;28;20929;-56
2023/06/17 02:54:19;;;;;;;7.10;6.40;;;19.40;49.40;;;;;;5075199;28;20178;-57
2023/06/17 02:56:45;;;;;;;7.45;6.47;;;19.40;49.00;;;;;;5075218;28;20180;-58
2023/06/17 02:59:14;;;;;;;6.93;6.33;;;19.50;49.20;;;;;;5074878;28;20192;-55
2023/06/17 03:01:42;;;;;;;6.40;5.80;;;19.50;49.30;;;;;;5075122;28;20377;-58
2023/06/17 03:04:08;;;;;;;6.18;5.57;;;19.40;49.50;;;;;;5074943;28;20173;-57
2023/06/17 03:06:35;;;;;;;10.55;6.07;;;19.50;49.90;;;;;;5074782;28;20648;-58
2023/06/17 03:09:04;;;;;;;7.18;6.55;;;19.50;50.50;;;;;;5074722;28;20201;-58
2023/06/17 03:11:30;;;;;;;10.07;6.68;;;19.50;49.90;;;;;;5074808;28;20199;-56
2023/06/17 03:13:56;;;;;;;8.40;6.63;;;19.50;50.60;;;;;;5074466;28;20267;-57
2023/06/17 03:16:47;;;;;;;6.47;5.63;;;19.50;50.00;;;;;;5074771;28;20183;-57
2023/06/17 03:19:14;;;;;;;10.95;6.55;;;19.60;50.10;;;;;;5074379;28;20485;-57
2023/06/17 03:21:42;;;;;;;7.43;6.80;;;19.60;50.40;;;;;;5074726;28;20571;-58
2023/06/17 03:24:08;;;;;;;6.97;5.90;;;19.60;50.50;;;;;;5074515;28;20637;-56
2023/06/17 03:26:34;;;;;;;6.60;6.00;;;19.60;50.50;;;;;;5074578;28;20172;-56
2023/06/17 03:29:04;;;;;;;8.18;6.85;;;19.60;50.80;;;;;;5074660;28;20196;-58
2023/06/17 03:31:30;;;;;;;7.38;6.45;;;19.70;50.80;;;;;;5074278;28;20177;-55
2023/06/17 03:33:55;;;;;;;6.90;5.80;;;19.70;51.00;;;;;;5074476;28;20243;-59
2023/06/17 03:36:25;;;;;;;8.20;6.83;;;19.70;50.80;;;;;;5074402;28;20407;-58
2023/06/17 03:38:51;;;;;;;7.70;6.93;;;19.70;50.70;;;;;;5074278;28;20437;-56
2023/06/17 03:41:17;;;;;;;7.28;6.57;;;19.70;50.80;;;;;;5074098;28;20200;-59
2023/06/17 03:43:43;;;;;;;8.82;7.93;;;19.70;50.70;;;;;;5074217;28;20180;-57
2023/06/17 03:46:08;;;;;;;6.90;6.27;;;19.80;50.70;;;;;;5074385;28;20173;-55
2023/06/17 03:48:35;;;;;;;7.30;6.60;;;19.80;50.90;;;;;;5074400;28;20193;-56
2023/06/17 03:51:02;;;;;;;7.85;7.05;;;19.80;51.00;;;;;;5074005;28;20176;-58
2023/06/17 03:53:28;;;;;;;6.40;5.70;;;19.90;51.00;;;;;;5073981;28;20169;-57
2023/06/17 03:55:54;;;;;;;7.75;6.97;;;19.90;50.70;;;;;;5074057;28;20199;-59
2023/06/17 03:58:20;;;;;;;6.70;6.10;;;19.90;51.00;;;;;;5073960;28;20188;-60
2023/06/17 04:00:47;;;;;;;7.28;6.57;;;19.90;50.70;;;;;;5073861;28;20192;-57
2023/06/17 04:03:14;;;;;;;6.90;6.10;;;19.90;50.80;;;;;;5073972;28;20231;-56
2023/06/17 04:05:41;;;;;;;8.25;7.45;;;20.00;50.70;;;;;;5073795;28;20168;-54
2023/06/17 04:08:08;;;;;;;7.55;6.85;;;20.00;50.70;;;;;;5073907;28;20204;-56
2023/06/17 04:10:34;;;;;;;7.82;7.13;;;20.10;50.80;;;;;;5073463;28;20219;-59
2023/06/17 04:13:00;;;;;;;7.00;5.93;;;20.20;50.50;;;;;;5073564;28;20195;-58
2023/06/17 04:15:25;;;;;;;7.43;6.73;;;20.30;50.60;;;;;;5073537;28;20169;-56
2023/06/17 04:17:51;;;;;;;8.17;7.40;;;20.30;50.80;;;;;;5073791;28;20192;-58
2023/06/17 04:20:17;;;;;;;9.20;7.70;;;20.40;50.80;;;;;;5073287;28;20173;-60
2023/06/17 04:22:43;;;;;;;9.53;8.53;;;20.40;50.90;;;;;;5073349;28;20200;-56
2023/06/17 04:25:12;;;;;;;7.90;7.10;;;20.40;51.10;;;;;;5071988;28;20172;-57
2023/06/17 04:27:38;;;;;;;7.13;6.30;;;20.50;51.00;;;;;;5072839;28;20454;-56
2023/06/17 04:30:07;;;;;;;7.70;6.88;;;20.50;50.80;;;;;;5073031;28;20222;-57
2023/06/17 04:32:35;;;;;;;7.30;6.55;;;20.60;50.50;;;;;;5073436;28;20187;-57
2023/06/17 04:35:03;;;;;;;8.48;7.32;;;20.60;50.40;;;;;;5073233;28;20187;-56
2023/06/17 04:37:32;;;;;;;7.00;6.40;;;20.60;49.90;;;;;;5073385;28;20177;-56
2023/06/17 04:39:58;;;;;;;7.57;6.10;;;20.60;49.80;;;;;;5071909;28;20181;-57
2023/06/17 04:42:25;;;;;;;7.60;6.90;;;20.60;49.90;;;;;;5072897;28;20200;-56
2023/06/17 04:44:51;;;;;;;8.75;7.95;;;20.70;49.90;;;;;;5073058;28;20181;-56
2023/06/17 04:47:19;;;;;;;8.55;7.75;;;20.70;49.40;;;;;;5073153;28;20176;-59
2023/06/17 04:49:47;;;;;;;8.00;7.20;;;20.80;49.50;;;;;;5072886;28;20180;-60
2023/06/17 04:52:13;;;;;;;8.45;7.40;;;20.80;49.50;;;;;;5072851;28;20255;-56
2023/06/17 04:54:40;;;;;;;9.15;8.35;;;20.80;49.20;;;;;;5073081;28;20173;-56
2023/06/17 04:57:08;;;;;;;7.72;7.03;;;20.80;48.90;;;;;;5072850;28;20192;-59
2023/06/17 04:59:34;;;;;;;7.97;6.72;;;20.90;48.90;;;;;;5072644;28;20200;-55
2023/06/17 05:02:00;;;;;;;10.23;8.63;;;20.90;48.90;;;;;;5072947;28;20699;-56
2023/06/17 05:04:26;;;;;;;8.70;7.80;;;20.90;48.30;;;;;;5072601;28;20195;-58
2023/06/17 05:06:51;;;;;;;8.07;7.33;;;20.90;48.50;;;;;;5072656;28;20486;-56
2023/06/17 05:09:18;;;;;;;8.70;7.80;;;21.00;48.80;;;;;;5072294;28;20188;-57
2023/06/17 05:11:44;;;;;;;9.38;6.45;;;21.00;48.80;;;;;;5072319;28;20204;-56
2023/06/17 05:14:10;;;;;;;8.55;7.25;;;21.10;48.90;;;;;;5072422;28;20657;-59
2023/06/17 05:16:36;;;;;;;8.63;7.73;;;21.10;48.60;;;;;;5072517;28;20173;-57
2023/06/17 05:19:02;;;;;;;9.23;8.37;;;21.20;48.20;;;;;;5072289;28;20957;-57
2023/06/17 05:21:28;;;;;;;10.10;9.10;;;21.20;48.10;;;;;;5072171;28;20287;-58
2023/06/17 05:23:54;;;;;;;9.90;8.90;;;21.20;48.30;;;;;;5072325;28;20432;-55
2023/06/17 05:26:20;;;;;;;8.88;7.97;;;21.30;48.10;;;;;;5072267;28;20189;-57
2023/06/17 05:28:46;;;;;;;9.37;8.47;;;21.30;48.20;;;;;;5072160;28;20592;-58
2023/06/17 05:31:12;;;;;;;9.57;8.50;;;21.30;48.20;;;;;;5072063;28;20179;-56
2023/06/17 05:33:37;;;;;;;9.37;8.47;;;21.40;47.90;;;;;;5072468;28;20205;-54
2023/06/17 05:36:03;;;;;;;9.87;8.50;;;21.40;47.70;;;;;;5072283;28;20191;-61
2023/06/17 05:38:30;;;;;;;8.90;7.30;;;21.40;47.70;;;;;;5072139;28;20688;-56
2023/06/17 05:40:56;;;;;;;8.37;7.57;;;21.40;47.80;;;;;;5071930;28;20981;-57
2023/06/17 05:43:26;;;;;;;9.27;8.37;;;21.40;47.70;;;;;;5072357;28;20484;-56
2023/06/17 05:45:51;;;;;;;8.73;7.93;;;21.50;47.80;;;;;;5072092;28;20937;-55
2023/06/17 05:48:17;;;;;;;9.70;8.70;;;21.50;47.80;;;;;;5072139;28;20411;-56
2023/06/17 05:50:43;;;;;;;9.40;8.50;;;21.50;47.90;;;;;;5071695;28;20510;-57
2023/06/17 05:53:09;;;;;;;12.90;10.87;;;21.50;47.80;;;;;;5072013;28;20193;-56
2023/06/17 05:55:34;;;;;;;10.13;9.13;;;21.50;47.40;;;;;;5072247;28;20234;-58
2023/06/17 05:58:00;;;;;;;9.83;8.80;;;21.50;47.90;;;;;;5072252;28;20246;-57
2023/06/17 06:00:26;;;;;;;10.23;9.17;;;21.60;48.00;;;;;;5072096;28;20172;-55
2023/06/17 06:02:52;;;;;;;10.10;9.13;;;21.60;47.80;;;;;;5071957;28;20208;-56
2023/06/17 06:05:18;;;;;;;10.50;9.50;;;21.70;47.90;;;;;;5071954;28;20183;-58
2023/06/17 06:07:44;;;;;;;11.80;10.00;;;21.70;47.70;;;;;;5071780;28;20639;-58
2023/06/17 06:10:10;;;;;;;10.13;9.27;;;21.80;47.00;;;;;;5071852;28;21082;-58
2023/06/17 06:12:37;;;;;;;10.37;9.37;;;21.80;47.60;;;;;;5071702;28;20452;-59
2023/06/17 06:15:04;;;;;;;10.83;9.57;;;21.80;47.30;;;;;;5071812;28;20422;-59
2023/06/17 06:17:30;;;;;;;11.77;9.50;;;21.80;47.30;;;;;;5071697;28;20456;-57
2023/06/17 06:19:56;;;;;;;10.83;8.67;;;22.00;47.50;;;;;;5071559;28;20414;-58
2023/06/17 06:22:21;;;;;;;12.37;10.50;;;22.00;47.30;;;;;;5071572;28;20442;-56
2023/06/17 06:24:47;;;;;;;11.03;9.93;;;22.10;47.10;;;;;;5071891;28;20410;-55
2023/06/17 06:27:13;;;;;;;10.90;9.80;;;22.10;46.40;;;;;;5071859;28;20767;-56
2023/06/17 06:29:39;;;;;;;11.73;10.40;;;22.20;46.00;;;;;;5071401;28;20445;-60
2023/06/17 06:32:05;;;;;;;11.10;9.57;;;22.20;45.60;;;;;;5071683;28;20177;-57
2023/06/17 06:34:31;;;;;;;11.20;9.90;;;22.10;45.50;;;;;;5071834;28;20855;-57
2023/06/17 06:36:58;;;;;;;11.97;10.47;;;22.10;45.30;;;;;;5071556;28;20427;-55
2023/06/17 06:39:25;;;;;;;14.80;11.80;;;22.20;46.20;;;;;;5071654;28;20223;-60
2023/06/17 06:41:51;;;;;;;13.97;11.17;;;22.20;46.30;;;;;;5071445;28;20457;-59
2023/06/17 06:44:17;;;;;;;15.60;12.83;;;22.30;46.00;;;;;;5071615;28;20399;-56
2023/06/17 06:46:44;;;;;;;13.10;11.80;;;23.10;46.00;;;;;;5071491;28;20406;-56
2023/06/17 06:49:09;;;;;;;11.63;10.43;;;22.40;45.70;;;;;;5072154;28;20423;-58
2023/06/17 06:51:36;;;;;;;12.33;10.70;;;22.50;46.00;;;;;;5075045;28;20402;-56
2023/06/17 06:54:02;;;;;;;11.60;10.33;;;22.50;45.80;;;;;;5073964;28;20173;-56
2023/06/17 06:56:28;;;;;;;13.43;10.60;;;22.60;45.90;;;;;;5075380;28;20410;-57
2023/06/17 06:58:56;;;;;;;12.93;11.70;;;22.70;45.80;;;;;;5075107;28;20434;-57
2023/06/17 07:01:23;;;;;;;16.40;11.63;;;22.70;45.70;;;;;;5074833;28;20208;-59
2023/06/17 07:03:48;;;;;;;15.50;12.00;;;22.80;45.60;;;;;;5075069;28;20832;-56
2023/06/17 07:06:14;;;;;;;12.10;10.90;;;22.80;45.90;;;;;;5074954;28;20430;-55
2023/06/17 07:08:40;;;;;;;13.57;12.17;;;22.90;45.90;;;;;;5074885;28;20191;-55
2023/06/17 07:11:06;;;;;;;14.73;13.10;;;23.00;46.10;;;;;;5074642;28;20402;-59
2023/06/17 07:13:32;;;;;;;13.53;12.17;;;23.00;45.30;;;;;;5074711;28;20295;-55
2023/06/17 07:15:58;;;;;;;13.03;11.87;;;23.00;45.40;;;;;;5073508;28;20176;-56
2023/06/17 07:18:24;;;;;;;11.67;10.47;;;23.00;45.60;;;;;;5073750;28;20443;-56
2023/06/17 07:20:49;;;;;;;12.90;11.60;;;23.10;46.00;;;;;;5074264;28;20172;-54
2023/06/17 07:23:15;;;;;;;13.30;12.00;;;23.20;46.10;;;;;;5073304;28;20446;-56
2023/06/17 07:25:41;;;;;;;14.17;12.87;;;23.10;44.70;;;;;;5073398;28;20168;-58
2023/06/17 07:28:07;;;;;;;12.03;10.83;;;23.10;44.90;;;;;;5074500;28;20185;-55
2023/06/17 07:30:33;;;;;;;12.60;11.30;;;23.10;45.00;;;;;;5074324;28;20403;-55
2023/06/17 07:32:59;;;;;;;13.23;12.03;;;23.10;44.80;;;;;;5074715;28;20410;-58
2023/06/17 07:35:25;;;;;;;14.30;12.80;;;23.20;44.70;;;;;;5074444;28;20403;-57
2023/06/17 07:37:52;;;;;;;16.03;11.33;;;23.30;45.00;;;;;;5074372;28;20446;-56
2023/06/17 07:40:18;;;;;;;12.40;11.10;;;23.30;44.50;;;;;;5074220;28;20485;-59
2023/06/17 07:42:44;;;;;;;12.27;11.07;;;23.40;44.00;;;;;;5074275;28;20496;-59
2023/06/17 07:45:10;;;;;;;18.17;12.57;;;23.50;44.30;;;;;;5074581;28;20415;-55
2023/06/17 07:47:37;;;;;;;14.00;12.53;;;23.60;44.50;;;;;;5074109;28;20169;-58
2023/06/17 07:50:04;;;;;;;13.73;12.53;;;23.60;44.30;;;;;;5073871;28;20468;-60
2023/06/17 07:52:31;;;;;;;14.87;12.23;;;23.50;44.00;;;;;;5074299;28;20410;-56
2023/06/17 07:54:57;;;;;;;14.50;12.43;;;23.40;43.10;;;;;;5074277;28;20792;-56
2023/06/17 07:57:23;;;;;;;13.37;12.13;;;23.40;43.80;;;;;;5073993;28;20438;-56
2023/06/17 07:59:49;;;;;;;13.80;12.40;;;23.40;44.40;;;;;;5073696;28;20399;-56
2023/06/17 08:02:15;;;;;;;12.73;11.63;;;23.50;44.10;;;;;;5072765;28;20458;-60
2023/06/17 08:04:41;;;;;;;12.60;11.30;;;23.50;44.10;;;;;;5073807;28;20700;-56
2023/06/17 08:07:07;;;;;;;11.90;10.20;;;23.60;44.50;;;;;;5073814;28;20431;-57
2023/06/17 08:09:33;;;;;;;14.23;12.30;;;23.60;44.10;;;;;;5073951;28;20237;-55
2023/06/17 08:11:59;;;;;;;13.23;11.80;;;23.70;44.40;;;;;;5073543;28;20267;-57
2023/06/17 08:14:24;;;;;;;16.97;12.70;;;23.80;44.10;;;;;;5073700;28;20187;-55
2023/06/17 08:16:50;;;;;;;14.17;12.77;;;23.70;43.60;;;;;;5073481;28;20207;-57
2023/06/17 08:19:16;;;;;;;13.63;12.47;;;23.70;44.10;;;;;;5069697;28;20193;-59
2023/06/17 08:21:44;;;;;;;15.67;14.07;;;23.70;43.30;;;;;;5073570;28;20683;-55
2023/06/17 08:24:17;;;;;;;15.20;13.80;;;23.60;43.00;;;;;;5073619;28;20197;-59
2023/06/17 08:26:44;;;;;;;14.87;13.47;;;23.60;43.20;;;;;;5073479;28;20407;-56
2023/06/17 08:29:13;;;;;;;15.40;13.37;;;23.60;43.60;;;;;;5073203;28;20834;-59
2023/06/17 08:31:42;;;;;;;14.53;13.20;;;23.60;43.70;;;;;;5073269;28;20407;-57
2023/06/17 08:34:09;;;;;;;15.13;13.57;;;23.60;43.90;;;;;;5073632;28;20760;-58
2023/06/17 08:36:37;;;;;;;14.50;13.20;;;23.80;44.10;;;;;;5073569;28;20411;-57
2023/06/17 08:39:03;;;;;;;13.60;12.20;;;23.90;44.50;;;;;;5072082;28;20921;-56
2023/06/17 08:41:29;;;;;;;13.07;11.87;;;24.00;44.50;;;;;;5072943;28;20462;-56
2023/06/17 08:44:01;;;;;;;16.37;14.97;;;24.10;43.60;;;;;;5073179;28;20192;-57
2023/06/17 08:46:28;;;;;;;14.80;13.50;;;24.20;43.40;;;;;;5073013;28;20411;-55
2023/06/17 08:48:54;;;;;;;14.00;12.60;;;24.30;43.40;;;;;;5073048;28;20427;-55
2023/06/17 08:51:21;;;;;;;14.40;13.03;;;24.30;44.20;;;;;;5072982;28;20456;-59
2023/06/17 08:53:47;;;;;;;16.80;15.20;;;24.50;43.90;;;;;;5072950;28;20411;-59
2023/06/17 08:56:13;;;;;;;15.27;13.67;;;24.70;44.00;;;;;;5072939;28;20954;-57
2023/06/17 08:58:39;;;;;;;14.50;13.00;;;24.90;44.70;;;;;;5073175;28;20430;-59
2023/06/17 09:01:06;;;;;;;14.80;13.30;;;25.10;43.20;;;;;;5072710;28;20422;-58
2023/06/17 09:03:37;;;;;;;16.97;15.13;;;25.20;41.90;;;;;;5072895;28;20442;-57
2023/06/17 09:06:29;;;;;;;15.27;13.70;;;25.30;41.30;;;;;;5072681;28;20419;-59
2023/06/17 09:08:57;;;;;;;14.00;12.67;;;25.50;42.40;;;;;;5072792;28;20443;-57
2023/06/17 09:11:28;;;;;;;17.60;12.70;;;25.70;41.50;;;;;;5072368;28;20419;-59
2023/06/17 09:13:55;;;;;;;15.50;13.90;;;25.70;40.30;;;;;;5071139;28;20473;-56
2023/06/17 09:16:25;;;;;;;14.73;12.30;;;25.70;41.00;;;;;;5072448;28;20839;-55
2023/06/17 09:18:59;;;;;;;18.37;12.97;;;25.90;41.80;;;;;;5072558;28;20435;-57
2023/06/17 09:21:26;;;;;;;13.57;12.27;;;26.10;41.00;;;;;;5072176;28;20422;-55
2023/06/17 09:24:00;;;;;;;13.40;11.20;;;26.20;40.60;;;;;;5072445;28;20468;-59
2023/06/17 09:26:29;;;;;;;12.30;11.20;;;26.30;40.50;;;;;;5072527;28;20387;-55
2023/06/17 09:29:02;;;;;;;13.60;12.20;;;26.30;39.60;;;;;;5070870;28;20464;-57
2023/06/17 09:31:28;;;;;;;14.57;12.70;;;26.30;39.00;;;;;;5072305;28;20411;-59
2023/06/17 09:33:55;;;;;;;13.70;12.50;;;26.20;39.50;;;;;;5072239;28;20410;-56
2023/06/17 09:36:22;;;;;;;12.63;11.60;;;26.10;39.00;;;;;;5072116;28;20419;-58
2023/06/17 09:38:51;;;;;;;14.50;11.57;;;25.80;38.40;;;;;;5072098;28;20441;-58
2023/06/17 09:41:18;;;;;;;13.70;12.37;;;25.70;39.20;;;;;;5071967;28;20609;-54
2023/06/17 09:43:54;;;;;;;13.53;12.23;;;25.50;39.00;;;;;;5072141;28;20407;-56
2023/06/17 09:46:35;;;;;;;13.10;11.90;;;25.60;40.10;;;;;;5072081;28;20438;-55
2023/06/17 09:49:06;;;;;;;13.13;11.80;;;25.70;40.20;;;;;;5072222;28;20427;-58
2023/06/17 09:51:37;;;;;;;13.57;12.37;;;25.90;40.40;;;;;;5071954;28;20444;-55
2023/06/17 09:54:07;;;;;;;12.17;10.70;;;26.10;39.80;;;;;;5072185;28;20509;-55
2023/06/17 09:56:34;;;;;;;11.97;10.83;;;26.20;39.00;;;;;;5072046;28;20418;-57
2023/06/17 09:59:03;;;;;;;12.77;11.67;;;26.20;38.10;;;;;;5072006;28;20434;-57
2023/06/17 10:01:33;;;;;;;10.90;9.90;;;26.20;38.30;;;;;;5071968;28;20450;-55
2023/06/17 10:04:02;;;;;;;10.57;9.50;;;26.10;38.70;;;;;;5070670;28;20407;-58
2023/06/17 10:06:30;;;;;;;12.80;10.23;;;26.10;38.20;;;;;;5071999;28;20414;-57
2023/06/17 10:08:57;;;;;;;11.03;10.03;;;26.00;38.20;;;;;;5072047;28;20557;-57
2023/06/17 10:11:25;;;;;;;10.50;9.33;;;26.10;39.00;;;;;;5071688;28;20905;-56
2023/06/17 10:13:59;;;;;;;13.30;11.70;;;26.30;38.90;;;;;;5071677;28;20443;-59
2023/06/17 10:16:28;;;;;;;11.60;10.50;;;26.50;38.20;;;;;;5072000;28;20430;-58
2023/06/17 10:18:57;;;;;;;10.47;9.47;;;26.70;39.20;;;;;;5071855;28;20423;-56
2023/06/17 10:21:26;;;;;;;11.20;9.70;;;27.10;39.10;;;;;;5071458;28;20403;-55
2023/06/17 10:23:53;;;;;;;9.50;8.60;;;27.30;38.50;;;;;;5072227;28;20406;-58
2023/06/17 10:26:21;;;;;;;10.50;8.90;;;27.60;36.90;;;;;;5075919;28;20448;-55
2023/06/17 10:29:08;;;;;;;11.13;10.03;;;27.60;36.20;;;;;;5075716;28;20425;-55
2023/06/17 10:31:42;;;;;;;10.80;9.70;;;27.70;35.50;;;;;;5075481;28;20913;-59
2023/06/17 10:34:14;;;;;;;10.67;9.57;;;27.80;35.50;;;;;;5075622;28;20850;-56
2023/06/17 10:36:39;;;;;;;10.30;9.20;;;27.70;35.50;;;;;;5075540;28;20500;-57
2023/06/17 10:39:13;;;;;;;10.20;8.60;;;27.80;35.50;;;;;;5074502;28;20974;-55
2023/06/17 10:41:42;;;;;;;8.80;8.10;;;28.00;34.50;;;;;;5075436;28;20450;-58
2023/06/17 10:44:35;;;;;;;7.57;6.80;;;28.00;34.50;;;;;;5075282;28;20407;-57
2023/06/17 10:47:02;;;;;;;7.77;7.00;;;28.10;31.50;;;;;;5075203;28;20406;-57
2023/06/17 10:49:41;;;;;;;8.10;7.23;;;28.10;32.00;;;;;;5074988;28;20422;-56
2023/06/17 10:52:13;;;;;;;8.43;7.63;;;28.00;32.40;;;;;;5075278;28;20402;-55
2023/06/17 10:54:52;;;;;;;8.93;8.10;;;28.00;33.70;;;;;;5075452;28;20743;-58
2023/06/17 10:57:34;;;;;;;9.47;8.47;;;28.10;32.70;;;;;;5074963;28;20402;-58
2023/06/17 11:00:06;;;;;;;7.50;6.70;;;28.10;33.20;;;;;;5074858;28;20398;-56
2023/06/17 11:02:32;;;;;;;10.90;7.87;;;27.90;32.60;;;;;;5073829;28;20946;-58
2023/06/17 11:05:01;;;;;;;10.27;9.27;;;28.00;33.50;;;;;;5075248;28;20410;-56
2023/06/17 11:07:27;;;;;;;10.40;9.20;;;28.10;33.60;;;;;;5075171;28;20259;-56
2023/06/17 11:09:53;;;;;;;9.00;7.20;;;28.20;33.20;;;;;;5074555;28;20403;-58
2023/06/17 11:12:19;;;;;;;9.50;8.70;;;28.20;30.70;;;;;;5074656;28;20429;-58
2023/06/17 11:14:45;;;;;;;8.90;8.10;;;28.10;31.90;;;;;;5075037;28;20441;-56
2023/06/17 11:17:11;;;;;;;9.40;8.50;;;28.10;32.20;;;;;;5074772;28;20917;-55
2023/06/17 11:19:37;;;;;;;7.27;6.60;;;28.10;32.90;;;;;;5074396;28;20514;-59
2023/06/17 11:22:03;;;;;;;8.20;7.50;;;28.30;31.50;;;;;;5074658;28;20224;-55
2023/06/17 11:24:34;;;;;;;7.27;6.60;;;28.30;31.20;;;;;;5074586;28;20498;-56
2023/06/17 11:27:01;;;;;;;7.63;6.80;;;28.40;31.40;;;;;;5074473;28;20410;-55
2023/06/17 11:29:27;;;;;;;8.43;7.70;;;28.50;31.60;;;;;;5074471;28;20425;-55
2023/06/17 11:31:54;;;;;;;8.87;7.60;;;28.50;31.20;;;;;;5074530;28;20763;-58
2023/06/17 11:34:22;;;;;;;7.70;6.80;;;28.60;32.00;;;;;;5074436;28;20403;-59
2023/06/17 11:36:54;;;;;;;7.40;6.40;;;28.70;32.00;;;;;;5074166;28;20823;-55
2023/06/17 11:39:30;;;;;;;8.00;7.20;;;28.90;32.30;;;;;;5074339;28;20476;-55
2023/06/17 11:42:03;;;;;;;6.80;6.17;;;29.00;32.30;;;;;;5074514;28;20442;-56
2023/06/17 11:44:33;;;;;;;6.90;6.27;;;29.10;32.50;;;;;;5074271;28;20895;-57
2023/06/17 11:47:06;;;;;;;6.67;5.87;;;29.30;29.70;;;;;;5074285;28;20456;-57
2023/06/17 11:49:32;;;;;;;8.50;7.60;;;29.20;30.70;;;;;;5073788;28;20431;-54
2023/06/17 11:52:08;;;;;;;7.67;6.97;;;29.00;31.80;;;;;;5074119;28;20901;-59
2023/06/17 11:54:45;;;;;;;6.70;6.10;;;28.90;30.90;;;;;;5074109;28;20797;-56
2023/06/17 11:57:16;;;;;;;4.90;4.50;;;28.70;32.10;;;;;;5073960;28;20877;-55
2023/06/17 11:59:43;;;;;;;6.30;5.70;;;28.30;33.20;;;;;;5073951;28;20911;-56
2023/06/17 12:02:10;;;;;;;6.03;5.17;;;28.00;34.40;;;;;;5074041;28;20497;-55
2023/06/17 12:04:36;;;;;;;4.97;4.57;;;27.70;34.50;;;;;;5074045;28;20438;-58
2023/06/17 12:07:08;;;;;;;5.97;5.03;;;27.40;34.60;;;;;;5073809;28;20780;-55
2023/06/17 12:09:58;;;;;;;7.37;3.93;;;27.20;34.60;;;;;;5073559;28;20492;-56
2023/06/17 12:12:28;;;;;;;4.40;4.00;;;27.10;33.70;;;;;;5073265;28;20430;-56
2023/06/17 12:15:00;;;;;;;4.93;4.10;;;26.90;34.40;;;;;;5074019;28;20437;-58
2023/06/17 12:17:26;;;;;;;5.90;5.30;;;26.70;35.00;;;;;;5073911;28;20464;-59
2023/06/17 12:19:59;;;;;;;7.67;6.20;;;26.60;35.20;;;;;;5073569;28;20443;-54
2023/06/17 12:22:25;;;;;;;6.20;5.70;;;26.50;36.60;;;;;;5073518;28;20970;-59
2023/06/17 12:24:51;;;;;;;6.13;5.30;;;26.40;37.10;;;;;;5073345;28;20418;-56
2023/06/17 12:27:17;;;;;;;8.00;6.60;;;26.40;37.40;;;;;;5073677;28;20169;-55
2023/06/17 12:29:44;;;;;;;7.63;6.93;;;26.30;37.20;;;;;;5073205;28;20415;-56
2023/06/17 12:32:10;;;;;;;6.43;5.87;;;26.30;37.90;;;;;;5073611;28;20260;-57
2023/06/17 12:34:35;;;;;;;12.47;7.57;;;26.40;38.50;;;;;;5073474;28;20482;-59
2023/06/17 12:37:01;;;;;;;7.03;6.33;;;26.50;39.00;;;;;;5073386;28;20326;-56
2023/06/17 12:39:30;;;;;;;9.30;6.00;;;26.50;36.70;;;;;;5072873;28;20254;-55
2023/06/17 12:41:56;;;;;;;7.70;6.10;;;26.50;37.90;;;;;;5072997;28;20676;-55
2023/06/17 12:44:22;;;;;;;9.20;8.30;;;26.50;38.30;;;;;;5073077;28;20395;-55